Time;durP1;ratioP1;P1;durP2;ratioP2;P2;SDS_P1;SDS_P2;PMS_P1;PMS_P2;Temp;Humidity;BMP_temperature;BMP_pressure;BME280_temperature;BME280_humidity;BME280_pressure;Samples;Min_cycle;Max_cycle;Signal;HPM_P1;HPM_P2
2022/03/27 00:00:28;;;;;;;8.52;5.80;;;20.50;59.10;;;;;;4934605;28;88452;-89
2022/03/27 00:02:56;;;;;;;7.75;5.15;;;20.50;59.70;;;;;;4934819;28;87057;-86
2022/03/27 00:05:22;;;;;;;7.75;5.22;;;20.40;58.90;;;;;;4934147;28;88306;-89
2022/03/27 00:07:48;;;;;;;7.55;5.30;;;20.40;58.90;;;;;;4934671;28;88171;-86
2022/03/27 00:10:14;;;;;;;6.85;5.15;;;20.40;58.90;;;;;;4933879;28;86997;-86
2022/03/27 00:12:39;;;;;;;8.55;5.63;;;20.40;59.00;;;;;;4932089;28;88726;-85
2022/03/27 00:15:05;;;;;;;7.20;5.70;;;20.40;59.20;;;;;;4933860;28;87793;-89
2022/03/27 00:17:34;;;;;;;9.18;6.07;;;20.40;59.10;;;;;;4934759;28;87274;-87
2022/03/27 00:20:04;;;;;;;7.97;5.55;;;20.40;59.10;;;;;;4931434;28;86935;-87
2022/03/27 00:22:30;;;;;;;7.75;5.30;;;20.40;59.10;;;;;;4933696;28;87148;-88
2022/03/27 00:24:57;;;;;;;8.93;5.43;;;20.40;58.90;;;;;;4933219;28;88773;-87
2022/03/27 00:27:23;;;;;;;10.40;5.45;;;20.40;58.90;;;;;;4932816;28;91105;-86
2022/03/27 00:29:49;;;;;;;6.25;4.97;;;20.40;58.90;;;;;;4916889;28;87675;-88
2022/03/27 00:32:15;;;;;;;9.32;5.57;;;20.40;58.80;;;;;;4933070;28;87415;-90
2022/03/27 00:34:40;;;;;;;7.13;4.70;;;20.40;59.00;;;;;;4933469;28;87300;-85
2022/03/27 00:37:06;;;;;;;8.30;5.40;;;20.40;59.00;;;;;;4933785;28;87830;-87
2022/03/27 00:39:32;;;;;;;6.18;5.22;;;20.40;58.90;;;;;;4933856;28;88064;-86
2022/03/27 00:41:57;;;;;;;6.97;5.40;;;20.40;58.90;;;;;;4934328;28;87031;-90
2022/03/27 00:44:23;;;;;;;9.07;5.53;;;20.40;58.90;;;;;;4931245;28;87717;-89
2022/03/27 00:46:49;;;;;;;7.20;4.85;;;20.40;59.00;;;;;;4914907;28;90143;-90
2022/03/27 00:49:15;;;;;;;8.13;5.60;;;20.40;59.00;;;;;;4932499;28;88511;-91
2022/03/27 00:51:41;;;;;;;7.75;5.32;;;20.40;59.70;;;;;;4933438;28;87629;-89
2022/03/27 00:54:07;;;;;;;8.70;5.40;;;20.30;59.00;;;;;;4914866;28;90743;-89
2022/03/27 00:56:32;;;;;;;7.45;5.22;;;20.30;58.90;;;;;;4932908;28;87456;-91
2022/03/27 00:58:58;;;;;;;5.82;5.20;;;20.30;59.00;;;;;;4932981;28;86944;-89
2022/03/27 01:01:32;;;;;;;7.28;4.90;;;20.30;58.90;;;;;;4933581;28;87515;-92
2022/03/27 01:03:58;;;;;;;9.32;5.95;;;20.30;58.90;;;;;;4932776;28;89067;-86
2022/03/27 01:06:31;;;;;;;7.03;5.35;;;20.30;59.10;;;;;;4932759;28;87533;-86
2022/03/27 01:11:42;;;;;;;7.68;5.35;;;20.30;59.00;;;;;;4931567;28;88134;-86
2022/03/27 01:14:09;;;;;;;8.93;5.53;;;20.30;58.90;;;;;;4930879;28;88954;-84
2022/03/27 01:16:55;;;;;;;7.25;5.22;;;20.30;58.90;;;;;;4929192;28;89887;-88
2022/03/27 01:19:21;;;;;;;8.85;5.78;;;20.30;58.80;;;;;;4929336;28;87972;-84
2022/03/27 01:21:47;;;;;;;6.25;4.72;;;20.30;59.00;;;;;;4913073;28;89394;-84
2022/03/27 01:24:16;;;;;;;7.13;5.22;;;20.30;58.90;;;;;;4932257;28;88060;-85
2022/03/27 01:26:42;;;;;;;9.13;5.30;;;20.30;58.90;;;;;;4932399;28;90695;-85
2022/03/27 01:29:08;;;;;;;6.47;4.95;;;20.30;58.90;;;;;;4931456;28;87782;-84
2022/03/27 01:31:35;;;;;;;6.43;4.80;;;20.30;58.80;;;;;;4933785;28;87161;-86
2022/03/27 01:34:01;;;;;;;7.70;5.55;;;20.30;58.90;;;;;;4915546;28;90809;-85
2022/03/27 01:36:34;;;;;;;7.47;5.13;;;20.30;58.90;;;;;;4934167;28;88456;-84
2022/03/27 01:39:01;;;;;;;6.82;4.35;;;20.30;58.90;;;;;;4933492;28;88865;-85
2022/03/27 01:41:27;;;;;;;7.10;5.10;;;20.30;58.80;;;;;;4915819;28;89545;-86
2022/03/27 01:43:53;;;;;;;6.43;4.97;;;20.30;58.80;;;;;;4932540;28;87922;-84
2022/03/27 01:46:19;;;;;;;6.80;5.03;;;20.20;58.80;;;;;;4915640;28;89029;-87
2022/03/27 01:48:46;;;;;;;7.53;4.72;;;20.20;58.80;;;;;;4932928;28;88007;-84
2022/03/27 01:51:12;;;;;;;7.28;5.32;;;20.20;58.90;;;;;;4915726;28;89913;-87
2022/03/27 01:53:39;;;;;;;8.05;4.80;;;20.20;58.80;;;;;;4933550;28;87638;-84
2022/03/27 01:56:07;;;;;;;6.47;5.15;;;20.20;58.80;;;;;;4933708;28;87475;-84
2022/03/27 01:58:38;;;;;;;5.35;4.75;;;20.20;59.50;;;;;;4933506;28;86988;-81
2022/03/27 02:01:05;;;;;;;6.88;5.15;;;20.20;58.80;;;;;;4933203;28;87424;-82
2022/03/27 02:03:30;;;;;;;6.25;4.57;;;20.20;58.80;;;;;;4914573;28;91047;-84
2022/03/27 02:05:56;;;;;;;5.97;4.47;;;20.20;58.70;;;;;;4932615;28;89185;-83
2022/03/27 02:08:22;;;;;;;6.25;4.70;;;20.20;58.80;;;;;;4916058;28;87621;-81
2022/03/27 02:10:48;;;;;;;6.03;4.78;;;20.20;58.70;;;;;;4933293;28;87598;-83
2022/03/27 02:13:14;;;;;;;5.93;4.55;;;20.20;58.50;;;;;;4931321;28;87215;-81
2022/03/27 02:15:41;;;;;;;8.25;5.43;;;20.20;58.60;;;;;;4932343;28;87466;-82
2022/03/27 02:18:09;;;;;;;6.15;4.72;;;20.20;58.70;;;;;;4932113;28;87584;-83
2022/03/27 02:20:34;;;;;;;7.90;4.93;;;20.20;58.80;;;;;;4932356;28;86916;-83
2022/03/27 02:23:00;;;;;;;4.88;4.25;;;20.20;58.80;;;;;;4931448;28;87373;-83
2022/03/27 02:25:25;;;;;;;6.32;4.60;;;20.20;58.70;;;;;;4931596;28;87918;-83
2022/03/27 02:27:51;;;;;;;5.97;4.60;;;20.20;58.70;;;;;;4931554;28;88311;-84
2022/03/27 02:30:19;;;;;;;6.22;4.80;;;20.20;58.60;;;;;;4914294;28;91575;-84
2022/03/27 02:32:46;;;;;;;5.10;4.50;;;20.20;58.60;;;;;;4932641;28;88071;-82
2022/03/27 02:35:11;;;;;;;6.10;4.95;;;20.20;58.60;;;;;;4914301;28;89811;-83
2022/03/27 02:37:37;;;;;;;7.22;4.90;;;20.20;58.60;;;;;;4931510;28;87216;-82
2022/03/27 02:40:03;;;;;;;6.65;4.70;;;20.20;58.60;;;;;;4931393;28;87947;-84
2022/03/27 02:42:29;;;;;;;5.90;4.50;;;20.20;58.50;;;;;;4932064;28;87994;-82
2022/03/27 02:44:54;;;;;;;6.88;5.47;;;20.20;58.70;;;;;;4931835;28;87488;-82
2022/03/27 02:47:20;;;;;;;7.57;4.90;;;20.10;59.10;;;;;;4930768;28;88122;-82
2022/03/27 02:49:45;;;;;;;5.65;5.00;;;20.10;58.50;;;;;;4931216;28;87894;-82
2022/03/27 02:52:11;;;;;;;6.15;4.97;;;20.10;58.50;;;;;;4930387;28;88627;-83
2022/03/27 02:54:36;;;;;;;6.22;4.68;;;20.10;58.60;;;;;;4931129;28;87538;-83
2022/03/27 02:57:03;;;;;;;6.78;5.00;;;20.10;58.50;;;;;;4931460;28;87733;-83
2022/03/27 02:59:28;;;;;;;7.68;4.82;;;20.10;58.40;;;;;;4930750;28;87336;-83
2022/03/27 03:01:54;;;;;;;5.75;4.28;;;20.10;58.30;;;;;;4932088;28;88631;-84
2022/03/27 03:04:20;;;;;;;6.10;4.68;;;20.10;58.40;;;;;;4931147;28;87285;-82
2022/03/27 03:06:47;;;;;;;5.97;5.10;;;20.10;58.40;;;;;;4931569;28;87312;-83
2022/03/27 03:09:13;;;;;;;5.82;4.55;;;20.10;58.30;;;;;;4931790;28;87254;-81
2022/03/27 03:11:38;;;;;;;6.35;4.85;;;20.10;58.30;;;;;;4931397;28;88165;-83
2022/03/27 03:14:04;;;;;;;6.65;4.50;;;20.10;58.40;;;;;;4931069;28;87676;-82
2022/03/27 03:16:32;;;;;;;5.05;4.10;;;20.10;58.20;;;;;;4931054;28;88317;-82
2022/03/27 03:18:58;;;;;;;5.30;4.53;;;20.10;58.20;;;;;;4929881;28;90490;-85
2022/03/27 03:21:24;;;;;;;6.60;4.60;;;20.10;58.30;;;;;;4929898;28;89710;-83
2022/03/27 03:23:50;;;;;;;5.43;4.63;;;20.00;58.30;;;;;;4930933;28;88543;-82
2022/03/27 03:26:16;;;;;;;5.32;4.60;;;20.10;58.50;;;;;;4931128;28;87934;-82
2022/03/27 03:28:42;;;;;;;5.50;4.55;;;20.00;58.30;;;;;;4929576;28;90082;-83
2022/03/27 03:31:07;;;;;;;9.20;5.55;;;20.10;58.40;;;;;;4930336;28;87734;-83
2022/03/27 03:33:33;;;;;;;5.65;4.43;;;20.00;58.40;;;;;;4930100;28;87822;-83
2022/03/27 03:35:59;;;;;;;5.63;4.25;;;20.00;58.40;;;;;;4930637;28;88038;-82
2022/03/27 03:38:24;;;;;;;5.22;4.20;;;20.00;58.20;;;;;;4912361;28;89606;-83
2022/03/27 03:40:50;;;;;;;5.78;4.35;;;20.00;58.20;;;;;;4929959;28;89269;-82
2022/03/27 03:43:19;;;;;;;4.70;4.20;;;20.10;58.30;;;;;;5011719;23;88371;-69
2022/03/27 03:45:46;;;;;;;4.67;4.13;;;20.00;58.30;;;;;;4947908;28;87892;-69
2022/03/27 03:48:12;;;;;;;5.78;4.32;;;20.10;58.30;;;;;;4948640;28;87943;-69
2022/03/27 03:50:38;;;;;;;6.75;4.82;;;20.00;58.20;;;;;;4948905;28;87887;-69
2022/03/27 03:53:04;;;;;;;5.10;4.57;;;20.00;58.20;;;;;;4949708;28;88252;-69
2022/03/27 03:55:31;;;;;;;5.45;3.78;;;20.00;58.20;;;;;;4950534;28;87612;-69
2022/03/27 03:57:57;;;;;;;6.15;4.68;;;20.00;58.30;;;;;;4951014;28;87084;-69
2022/03/27 04:00:23;;;;;;;5.63;4.30;;;20.00;58.30;;;;;;4951107;28;87479;-70
2022/03/27 04:02:49;;;;;;;5.13;4.22;;;20.00;58.30;;;;;;4964396;23;88421;-69
2022/03/27 04:05:16;;;;;;;6.25;4.15;;;20.00;58.40;;;;;;4933732;28;88710;-69
2022/03/27 04:07:42;;;;;;;5.95;4.47;;;20.00;58.20;;;;;;4951978;28;88157;-69
2022/03/27 04:10:09;;;;;;;6.28;4.63;;;20.00;58.30;;;;;;4934500;28;90761;-69
2022/03/27 04:12:35;;;;;;;5.35;4.20;;;20.00;58.30;;;;;;4951512;28;87755;-69
2022/03/27 04:15:00;;;;;;;6.10;4.80;;;20.00;58.20;;;;;;4932208;28;87360;-70
2022/03/27 04:17:26;;;;;;;5.75;4.53;;;20.00;58.10;;;;;;4936448;28;89896;-69
2022/03/27 04:19:52;;;;;;;5.63;4.30;;;20.00;58.10;;;;;;4950606;28;88228;-69
2022/03/27 04:22:18;;;;;;;6.93;4.80;;;20.00;58.30;;;;;;4951008;28;88034;-69
2022/03/27 04:24:44;;;;;;;5.95;4.60;;;20.00;58.20;;;;;;4951150;28;88165;-69
2022/03/27 04:27:10;;;;;;;4.60;4.03;;;20.00;58.20;;;;;;4950453;28;87523;-69
2022/03/27 04:29:35;;;;;;;5.32;4.40;;;20.00;58.30;;;;;;4949565;28;88740;-68
2022/03/27 04:32:01;;;;;;;4.70;4.30;;;20.00;58.10;;;;;;4950210;28;88809;-70
2022/03/27 04:34:27;;;;;;;4.93;4.43;;;19.90;58.10;;;;;;4949742;28;87519;-68
2022/03/27 04:36:53;;;;;;;5.00;4.50;;;20.00;58.10;;;;;;4949888;28;87520;-68
2022/03/27 04:39:19;;;;;;;4.60;4.10;;;20.00;58.10;;;;;;4948215;28;91030;-68
2022/03/27 04:41:46;;;;;;;6.20;4.32;;;19.90;58.10;;;;;;4932337;28;91428;-68
2022/03/27 04:44:12;;;;;;;4.68;4.10;;;19.90;58.20;;;;;;4950469;28;87657;-68
2022/03/27 04:46:38;;;;;;;6.10;4.30;;;19.90;58.10;;;;;;4932058;28;90556;-68
2022/03/27 04:49:04;;;;;;;5.28;4.32;;;19.90;58.10;;;;;;4950029;28;88361;-68
2022/03/27 04:51:30;;;;;;;4.60;3.85;;;19.90;58.20;;;;;;4950086;28;87826;-68
2022/03/27 04:53:56;;;;;;;5.13;4.28;;;19.90;58.20;;;;;;4939043;28;88692;-68
2022/03/27 04:56:22;;;;;;;5.07;4.03;;;19.90;58.00;;;;;;4947459;28;88725;-69
2022/03/27 04:58:50;;;;;;;6.72;4.15;;;19.90;58.00;;;;;;4932894;28;91364;-68
2022/03/27 05:01:16;;;;;;;4.78;4.22;;;19.90;57.90;;;;;;4934865;28;91800;-69
2022/03/27 05:03:41;;;;;;;5.00;4.38;;;19.90;57.90;;;;;;4953307;28;87878;-68
2022/03/27 05:06:07;;;;;;;4.65;4.22;;;19.90;57.90;;;;;;4953017;28;87708;-69
2022/03/27 05:08:34;;;;;;;5.35;4.45;;;19.90;57.90;;;;;;4939391;28;89279;-69
2022/03/27 05:10:59;;;;;;;5.53;4.65;;;19.90;57.90;;;;;;4953230;28;87868;-68
2022/03/27 05:13:26;;;;;;;4.68;4.22;;;19.90;58.10;;;;;;4934893;28;87440;-68
2022/03/27 05:15:52;;;;;;;4.88;4.13;;;19.90;57.90;;;;;;4953364;28;87372;-68
2022/03/27 05:18:17;;;;;;;5.90;4.40;;;19.90;58.10;;;;;;4953013;28;89417;-69
2022/03/27 05:20:44;;;;;;;5.72;4.30;;;19.90;57.90;;;;;;4953295;28;88056;-68
2022/03/27 05:23:10;;;;;;;5.22;4.07;;;19.90;58.00;;;;;;4935501;28;88266;-68
2022/03/27 05:25:45;;;;;;;4.20;3.80;;;19.90;58.00;;;;;;4953039;28;87368;-68
2022/03/27 05:28:12;;;;;;;4.95;4.35;;;19.90;57.90;;;;;;4951522;28;88526;-68
2022/03/27 05:30:38;;;;;;;5.47;3.88;;;19.90;58.50;;;;;;4952361;28;87246;-69
2022/03/27 05:33:04;;;;;;;4.25;3.60;;;19.90;57.90;;;;;;4933946;28;87540;-68
2022/03/27 05:35:30;;;;;;;4.90;4.40;;;19.90;57.70;;;;;;4952372;28;89004;-69
2022/03/27 05:37:58;;;;;;;4.28;3.88;;;19.90;57.90;;;;;;4952622;28;88168;-70
2022/03/27 05:40:28;;;;;;;4.03;3.63;;;19.90;57.90;;;;;;4934696;28;91447;-69
2022/03/27 05:42:54;;;;;;;5.50;4.18;;;19.80;57.90;;;;;;4951712;28;88026;-69
2022/03/27 05:45:20;;;;;;;4.50;4.03;;;19.80;57.80;;;;;;4934034;28;90162;-69
2022/03/27 05:47:48;;;;;;;4.82;4.30;;;19.80;57.80;;;;;;4952747;28;87525;-69
2022/03/27 05:50:18;;;;;;;4.88;3.83;;;19.80;57.70;;;;;;4950967;28;90976;-69
2022/03/27 05:52:44;;;;;;;4.95;3.85;;;19.80;57.70;;;;;;4951488;28;88016;-70
2022/03/27 05:55:12;;;;;;;4.50;4.07;;;19.80;58.50;;;;;;4934706;28;89906;-69
2022/03/27 05:57:38;;;;;;;4.32;3.92;;;19.80;57.60;;;;;;4952600;28;88103;-69
2022/03/27 06:00:06;;;;;;;5.22;3.97;;;19.80;57.70;;;;;;4953475;28;86864;-69
2022/03/27 06:02:32;;;;;;;5.13;4.10;;;19.80;57.60;;;;;;4934532;28;87406;-70
2022/03/27 06:04:58;;;;;;;4.45;4.05;;;19.80;57.60;;;;;;4952164;28;88144;-68
2022/03/27 06:07:24;;;;;;;4.35;3.95;;;19.80;57.60;;;;;;4951505;28;88709;-69
2022/03/27 06:09:51;;;;;;;4.60;4.15;;;19.80;57.70;;;;;;4950741;28;89274;-68
2022/03/27 06:12:17;;;;;;;4.35;3.75;;;19.80;57.60;;;;;;4952688;28;88185;-69
2022/03/27 06:14:43;;;;;;;4.50;3.90;;;19.80;57.60;;;;;;4934416;28;90063;-71
2022/03/27 06:17:09;;;;;;;21.05;4.97;;;19.80;57.70;;;;;;4965488;23;89160;-83
2022/03/27 06:19:46;;;;;;;20.60;4.22;;;19.90;57.90;;;;;;4932540;28;90008;-82
2022/03/27 06:22:11;;;;;;;11.48;4.15;;;19.90;58.00;;;;;;4934114;28;87915;-85
2022/03/27 06:24:38;;;;;;;17.08;4.05;;;19.90;57.80;;;;;;4950816;28;86460;-86
2022/03/27 06:27:04;;;;;;;8.95;4.22;;;20.00;57.90;;;;;;4951091;28;88130;-82
2022/03/27 06:29:30;;;;;;;9.48;3.55;;;20.00;58.10;;;;;;4950170;28;90014;-89
2022/03/27 06:31:56;;;;;;;10.38;3.85;;;20.00;57.80;;;;;;4952484;28;88315;-88
2022/03/27 06:34:21;;;;;;;9.23;4.50;;;20.10;58.10;;;;;;4951238;28;88302;-79
2022/03/27 06:36:47;;;;;;;13.77;5.00;;;20.10;58.30;;;;;;4949262;28;87890;-83
2022/03/27 06:39:13;;;;;;;20.52;7.05;;;20.20;58.50;;;;;;4950006;28;87992;-87
2022/03/27 06:41:39;;;;;;;19.52;6.55;;;20.20;58.80;;;;;;4950781;28;87412;-80
2022/03/27 06:44:05;;;;;;;17.58;6.63;;;20.20;59.00;;;;;;4950562;28;88046;-85
2022/03/27 06:46:31;;;;;;;18.67;7.03;;;20.30;59.10;;;;;;4950570;28;87726;-80
2022/03/27 06:48:56;;;;;;;24.50;7.07;;;20.30;59.70;;;;;;4948998;28;87289;-79
2022/03/27 06:51:22;;;;;;;28.40;7.90;;;20.30;59.80;;;;;;4954429;28;87060;-84
2022/03/27 06:53:47;;;;;;;21.17;6.97;;;20.30;59.70;;;;;;4951850;28;88193;-85
2022/03/27 06:56:14;;;;;;;23.95;8.60;;;20.30;59.70;;;;;;4952499;28;88922;-84
2022/03/27 06:58:39;;;;;;;22.45;8.18;;;20.40;59.80;;;;;;4952403;28;89175;-87
2022/03/27 07:03:50;;;;;;;19.67;7.32;;;20.40;59.60;;;;;;4953931;28;87649;-81
2022/03/27 07:06:17;;;;;;;21.50;6.72;;;20.40;59.50;;;;;;4951692;28;88551;-80
2022/03/27 07:08:43;;;;;;;27.85;6.90;;;20.40;60.60;;;;;;4930937;28;90281;-82
2022/03/27 07:11:08;;;;;;;25.00;7.75;;;20.40;59.60;;;;;;4953100;28;87419;-85
2022/03/27 07:13:34;;;;;;;16.17;7.35;;;20.40;59.00;;;;;;4952610;28;87066;-86
2022/03/27 07:16:00;;;;;;;25.67;7.88;;;20.40;58.80;;;;;;4953100;28;87615;-85
2022/03/27 07:18:26;;;;;;;39.80;11.75;;;20.40;59.60;;;;;;4951149;28;88238;-88
2022/03/27 07:20:52;;;;;;;52.20;12.55;;;20.40;59.90;;;;;;4950792;28;89263;-87
2022/03/27 07:23:19;;;;;;;47.47;15.75;;;20.40;59.20;;;;;;4890049;28;87620;-83
2022/03/27 07:25:47;;;;;;;46.47;12.98;;;20.40;58.90;;;;;;4933178;28;91180;-88
2022/03/27 07:28:14;;;;;;;27.63;8.67;;;20.30;59.00;;;;;;4950736;28;87975;-83
2022/03/27 07:30:42;;;;;;;31.15;9.60;;;20.40;59.40;;;;;;4952458;28;86937;-83
2022/03/27 07:33:07;;;;;;;29.40;9.05;;;20.40;59.60;;;;;;4949960;28;88092;-91
2022/03/27 07:35:34;;;;;;;23.58;8.73;;;20.40;60.30;;;;;;4951405;28;87632;-86
2022/03/27 07:38:03;;;;;;;37.78;10.23;;;20.40;60.60;;;;;;4953978;28;87420;-88
2022/03/27 07:40:29;;;;;;;27.52;10.13;;;20.40;61.10;;;;;;4953616;28;87390;-87
2022/03/27 07:42:55;;;;;;;40.28;11.40;;;20.40;60.90;;;;;;4953002;28;87424;-85
2022/03/27 07:45:24;;;;;;;27.60;9.10;;;20.40;61.00;;;;;;4952821;28;88528;-88
2022/03/27 07:47:51;;;;;;;34.83;9.50;;;20.50;61.40;;;;;;4952352;28;87557;-90
2022/03/27 07:50:18;;;;;;;33.47;9.77;;;20.50;61.60;;;;;;4953190;28;87856;-90
2022/03/27 07:52:44;;;;;;;35.65;12.10;;;20.50;61.90;;;;;;4953087;28;87089;-90
2022/03/27 07:55:12;;;;;;;28.38;11.40;;;20.50;61.80;;;;;;4951835;28;89600;-89
2022/03/27 07:57:38;;;;;;;26.52;10.32;;;20.50;61.20;;;;;;4953265;28;88051;-89
2022/03/27 08:00:07;;;;;;;32.42;10.95;;;20.50;60.30;;;;;;4953792;28;87920;-91
2022/03/27 08:02:35;;;;;;;26.45;10.18;;;20.50;60.20;;;;;;4934830;28;89558;-88
2022/03/27 08:05:01;;;;;;;49.03;16.13;;;20.50;60.80;;;;;;4951817;28;88181;-83
2022/03/27 08:07:28;;;;;;;73.13;25.42;;;20.50;59.30;;;;;;4951266;28;87711;-86
2022/03/27 08:09:53;;;;;;;78.03;25.85;;;20.50;56.90;;;;;;4952047;28;88429;-91
2022/03/27 08:12:20;;;;;;;63.90;23.38;;;20.50;57.10;;;;;;4953516;28;87722;-87
2022/03/27 08:14:49;;;;;;;50.45;21.50;;;20.50;57.50;;;;;;4951748;28;88005;-90
2022/03/27 08:17:23;;;;;;;57.03;21.53;;;20.50;57.90;;;;;;4953741;28;87488;-89
2022/03/27 08:19:52;;;;;;;68.10;25.55;;;20.40;57.30;;;;;;4954058;28;87726;-89
2022/03/27 08:22:20;;;;;;;62.38;22.50;;;20.50;57.10;;;;;;4953697;28;87520;-86
2022/03/27 08:24:46;;;;;;;52.17;19.30;;;20.40;57.10;;;;;;4953393;28;87790;-89
2022/03/27 08:27:11;;;;;;;51.13;20.40;;;20.50;57.40;;;;;;4953355;28;87388;-87
2022/03/27 08:29:39;;;;;;;50.35;19.55;;;20.50;57.70;;;;;;4953665;28;87451;-90
2022/03/27 08:32:07;;;;;;;51.97;19.10;;;20.50;58.50;;;;;;4953098;28;87342;-90
2022/03/27 08:34:36;;;;;;;54.83;20.88;;;20.50;58.30;;;;;;4952785;28;89075;-91
2022/03/27 08:37:04;;;;;;;42.53;18.53;;;20.50;58.20;;;;;;4953745;28;88177;-80
2022/03/27 08:39:30;;;;;;;54.58;19.55;;;20.50;59.60;;;;;;4950169;28;88277;-89
2022/03/27 08:41:57;;;;;;;56.78;21.00;;;20.50;60.10;;;;;;4949598;28;88062;-89
2022/03/27 08:44:26;;;;;;;45.67;19.77;;;20.50;60.60;;;;;;4948813;28;87707;-90
2022/03/27 08:46:56;;;;;;;43.92;18.60;;;20.50;60.80;;;;;;4949341;28;87920;-87
2022/03/27 08:49:34;;;;;;;46.70;19.20;;;20.50;61.00;;;;;;4950239;28;87418;-90
2022/03/27 08:52:10;;;;;;;46.33;18.50;;;20.50;61.30;;;;;;4951999;28;86768;-85
2022/03/27 08:54:49;;;;;;;40.00;17.40;;;20.50;61.50;;;;;;4948966;28;90668;-87
2022/03/27 08:57:34;;;;;;;48.90;21.08;;;20.50;61.10;;;;;;4933486;28;90841;-88
2022/03/27 09:00:03;;;;;;;46.08;19.58;;;20.50;60.80;;;;;;4950621;28;89286;-88
2022/03/27 09:02:29;;;;;;;40.00;17.00;;;20.50;61.50;;;;;;4950925;28;88273;-89
2022/03/27 09:04:56;;;;;;;47.00;19.55;;;20.50;61.10;;;;;;4950879;28;87630;-83
2022/03/27 09:07:27;;;;;;;37.50;17.60;;;20.50;60.60;;;;;;4949621;28;88517;-82
2022/03/27 09:09:53;;;;;;;41.22;17.33;;;20.50;60.90;;;;;;4950437;28;86977;-79
2022/03/27 09:12:20;;;;;;;32.85;17.92;;;20.50;60.80;;;;;;4949318;28;87995;-82
2022/03/27 09:14:46;;;;;;;41.00;18.90;;;20.50;60.50;;;;;;4948577;28;87575;-78
2022/03/27 09:17:13;;;;;;;48.42;19.08;;;20.50;60.60;;;;;;4949929;28;87203;-85
2022/03/27 09:19:47;;;;;;;51.33;18.58;;;20.50;60.80;;;;;;4949105;28;87091;-86
2022/03/27 09:22:19;;;;;;;47.33;19.05;;;20.60;60.50;;;;;;4932730;28;89499;-89
2022/03/27 09:24:47;;;;;;;46.08;18.25;;;20.60;59.50;;;;;;4949107;28;90845;-86
2022/03/27 09:27:25;;;;;;;51.83;18.60;;;20.60;59.30;;;;;;4950843;28;88902;-89
2022/03/27 09:29:55;;;;;;;41.85;18.38;;;20.50;59.70;;;;;;4950953;28;87747;-88
2022/03/27 09:32:28;;;;;;;36.95;16.92;;;20.60;60.70;;;;;;4950423;28;87272;-87
2022/03/27 09:35:01;;;;;;;34.80;17.23;;;20.60;61.10;;;;;;4948980;28;87638;-87
2022/03/27 09:37:45;;;;;;;39.38;16.52;;;20.60;61.40;;;;;;4949278;28;87617;-90
2022/03/27 09:40:12;;;;;;;47.78;17.77;;;20.60;61.80;;;;;;4949827;28;87355;-89
2022/03/27 09:42:42;;;;;;;40.88;16.05;;;20.60;62.20;;;;;;4952827;28;87270;-89
2022/03/27 09:45:24;;;;;;;38.78;15.32;;;20.70;62.50;;;;;;4952340;28;87037;-89
2022/03/27 09:47:53;;;;;;;47.17;15.27;;;20.70;63.30;;;;;;4953358;28;87883;-88
2022/03/27 09:50:39;;;;;;;48.45;20.65;;;20.70;63.30;;;;;;4952429;28;88566;-88
2022/03/27 09:53:25;;;;;;;36.75;14.23;;;20.80;59.80;;;;;;4954657;28;87980;-87
2022/03/27 09:55:56;;;;;;;52.13;18.92;;;20.70;61.30;;;;;;4954320;28;88744;-89
2022/03/27 09:58:44;;;;;;;41.30;17.58;;;20.70;61.50;;;;;;4953333;28;89094;-87
2022/03/27 10:01:11;;;;;;;36.20;16.27;;;20.70;61.40;;;;;;4956189;28;87047;-86
2022/03/27 10:04:02;;;;;;;36.25;16.77;;;20.70;61.70;;;;;;4955562;28;87931;-85
2022/03/27 10:06:32;;;;;;;36.38;18.20;;;20.70;61.60;;;;;;4954165;28;88198;-84
2022/03/27 10:08:59;;;;;;;38.80;17.73;;;20.70;61.70;;;;;;4955196;28;87508;-90
2022/03/27 10:11:25;;;;;;;35.85;17.08;;;20.70;61.70;;;;;;4954825;28;87260;-89
2022/03/27 10:13:54;;;;;;;36.20;16.88;;;20.70;62.40;;;;;;4954526;28;87627;-89
2022/03/27 10:16:29;;;;;;;33.15;15.52;;;20.60;62.50;;;;;;4954858;28;88562;-89
2022/03/27 10:18:59;;;;;;;34.08;16.60;;;20.70;62.40;;;;;;4930621;28;91153;-84
2022/03/27 10:21:26;;;;;;;40.17;17.85;;;20.70;61.90;;;;;;4956078;28;87100;-88
2022/03/27 10:24:19;;;;;;;37.22;18.55;;;20.60;62.10;;;;;;4958302;28;87721;-88
2022/03/27 10:26:45;;;;;;;32.10;18.00;;;20.60;61.20;;;;;;4931206;28;90490;-90
2022/03/27 10:29:13;;;;;;;35.50;16.83;;;20.70;61.40;;;;;;4956914;28;87682;-91
2022/03/27 10:31:39;;;;;;;33.70;17.63;;;20.60;61.80;;;;;;4957323;28;87553;-91
2022/03/27 10:34:07;;;;;;;30.67;16.17;;;20.60;61.60;;;;;;4938463;28;88710;-91
2022/03/27 10:36:40;;;;;;;36.47;17.73;;;20.60;61.70;;;;;;4956210;28;87731;-90
2022/03/27 10:39:28;;;;;;;33.50;17.77;;;20.60;61.70;;;;;;4951524;28;89103;-89
2022/03/27 10:42:19;;;;;;;35.15;16.52;;;20.60;60.50;;;;;;4953852;28;88118;-85
2022/03/27 10:45:09;;;;;;;36.88;17.08;;;20.60;61.50;;;;;;4952518;28;87704;-89
2022/03/27 10:47:34;;;;;;;36.85;16.92;;;20.50;62.10;;;;;;4952470;28;88360;-88
2022/03/27 10:50:06;;;;;;;32.92;17.08;;;20.50;62.70;;;;;;4953560;28;87916;-89
2022/03/27 10:52:45;;;;;;;38.33;16.48;;;20.50;63.50;;;;;;4954413;28;87523;-86
2022/03/27 10:55:13;;;;;;;38.22;16.27;;;20.50;63.50;;;;;;4955404;28;87221;-90
2022/03/27 10:57:48;;;;;;;30.95;15.95;;;20.60;63.60;;;;;;4957732;28;88135;-83
2022/03/27 11:00:15;;;;;;;32.10;16.88;;;20.60;63.90;;;;;;4956933;28;90111;-88
2022/03/27 11:02:45;;;;;;;33.88;16.23;;;20.60;63.40;;;;;;4938789;28;87160;-84
2022/03/27 11:05:29;;;;;;;35.92;17.48;;;20.50;63.60;;;;;;4956439;28;87663;-90
2022/03/27 11:08:29;;;;;;;38.13;18.00;;;20.60;63.30;;;;;;4957341;28;88620;-87
2022/03/27 11:10:59;;;;;;;31.00;15.38;;;20.60;63.70;;;;;;4913981;28;88483;-88
2022/03/27 11:13:33;;;;;;;38.90;15.43;;;20.50;63.30;;;;;;4954333;28;87814;-84
2022/03/27 11:16:12;;;;;;;34.63;16.50;;;20.50;63.40;;;;;;4955278;28;87174;-91
2022/03/27 11:18:54;;;;;;;42.27;16.63;;;20.60;62.80;;;;;;4947219;28;90481;-83
2022/03/27 11:21:28;;;;;;;33.20;16.63;;;20.50;62.50;;;;;;4932397;28;90253;-90
2022/03/27 11:24:03;;;;;;;33.70;16.90;;;20.50;62.50;;;;;;4956681;28;88201;-93
2022/03/27 11:26:29;;;;;;;32.72;16.90;;;20.50;62.20;;;;;;4956360;28;86606;-90
2022/03/27 11:28:59;;;;;;;39.38;17.83;;;20.50;62.00;;;;;;4955572;28;87615;-93
2022/03/27 11:31:33;;;;;;;32.30;14.65;;;20.50;62.50;;;;;;4955679;28;87591;-87
2022/03/27 11:34:27;;;;;;;36.50;16.38;;;20.60;62.10;;;;;;4953864;28;88564;-87
2022/03/27 11:37:12;;;;;;;27.88;15.70;;;20.50;62.70;;;;;;4953618;28;87842;-91
2022/03/27 11:39:39;;;;;;;33.28;17.30;;;20.50;62.80;;;;;;4955390;28;87547;-89
2022/03/27 11:42:31;;;;;;;32.58;17.10;;;20.50;62.60;;;;;;4954974;28;87405;-84
2022/03/27 11:45:12;;;;;;;32.17;16.75;;;20.50;62.80;;;;;;4954953;28;87963;-91
2022/03/27 11:47:41;;;;;;;35.72;18.75;;;20.50;62.80;;;;;;4955314;28;87091;-92
2022/03/27 11:50:08;;;;;;;33.33;16.15;;;20.50;62.70;;;;;;4936931;28;89952;-91
2022/03/27 11:52:36;;;;;;;36.38;18.15;;;20.40;62.70;;;;;;4937054;28;90306;-85
2022/03/27 11:55:10;;;;;;;31.13;16.70;;;20.40;62.50;;;;;;4954709;28;87675;-91
2022/03/27 11:57:44;;;;;;;33.28;15.93;;;20.40;62.50;;;;;;4935683;28;89283;-89
2022/03/27 12:00:11;;;;;;;29.90;16.75;;;20.40;62.50;;;;;;4934045;28;90143;-87
2022/03/27 12:02:45;;;;;;;27.67;16.05;;;20.40;62.50;;;;;;4936433;28;91339;-86
2022/03/27 12:05:17;;;;;;;31.75;16.42;;;20.40;63.10;;;;;;4954432;28;87740;-86
2022/03/27 12:07:57;;;;;;;29.20;16.08;;;20.40;62.40;;;;;;4937399;28;89152;-89
2022/03/27 12:10:24;;;;;;;30.23;16.52;;;20.40;62.50;;;;;;4936998;28;90045;-91
2022/03/27 12:12:58;;;;;;;30.52;16.90;;;20.40;62.30;;;;;;4954010;28;87647;-91
2022/03/27 12:15:35;;;;;;;32.08;16.15;;;20.40;62.30;;;;;;4953186;28;87082;-85
2022/03/27 12:18:02;;;;;;;28.90;15.25;;;20.40;62.40;;;;;;4953355;28;86896;-83
2022/03/27 12:20:27;;;;;;;27.75;15.90;;;20.40;62.20;;;;;;4952869;28;87833;-86
2022/03/27 12:22:53;;;;;;;32.45;17.10;;;20.40;62.30;;;;;;4954946;28;87484;-87
2022/03/27 12:25:29;;;;;;;29.70;16.00;;;20.40;62.00;;;;;;4954607;28;89200;-92
2022/03/27 12:30:47;;;;;;;30.45;16.15;;;20.40;62.00;;;;;;4954278;28;87571;-89
2022/03/27 12:33:13;;;;;;;28.20;15.07;;;20.40;61.90;;;;;;4935998;28;90130;-92
2022/03/27 12:35:39;;;;;;;28.08;14.55;;;20.40;61.90;;;;;;4944024;28;87652;-82
2022/03/27 12:38:05;;;;;;;28.83;14.75;;;20.40;62.00;;;;;;4937281;28;87245;-90
2022/03/27 12:40:44;;;;;;;28.35;15.43;;;20.40;62.00;;;;;;4938094;28;89314;-91
2022/03/27 12:43:14;;;;;;;;;;;20.40;61.90;;;;;;4955288;28;87053;-91
2022/03/27 12:45:42;;;;;;;27.30;15.35;;;20.40;61.90;;;;;;4955993;28;87120;-86
2022/03/27 12:48:18;;;;;;;31.27;16.93;;;20.40;61.80;;;;;;4954970;28;87129;-90
2022/03/27 12:50:48;;;;;;;30.13;16.75;;;20.40;61.50;;;;;;4955489;28;88799;-90
2022/03/27 12:53:23;;;;;;;26.73;14.80;;;20.40;61.60;;;;;;4954698;28;87768;-89